Time;durP1;ratioP1;P1;durP2;ratioP2;P2;SDS_P1;SDS_P2;PMS_P1;PMS_P2;Temp;Humidity;BMP_temperature;BMP_pressure;BME280_temperature;BME280_humidity;BME280_pressure;Samples;Min_cycle;Max_cycle;Signal;HPM_P1;HPM_P2
2022/11/18 00:01:54;;;;;;;4.07;1.20;;;10.60;37.80;;;;;;5064155;28;20469;-71
2022/11/18 00:04:21;;;;;;;3.70;0.90;;;10.60;37.80;;;;;;5065979;28;20819;-70
2022/11/18 00:06:48;;;;;;;4.00;1.00;;;10.60;37.90;;;;;;5063584;28;20989;-71
2022/11/18 00:09:15;;;;;;;4.63;1.30;;;10.60;37.80;;;;;;5066605;28;20852;-72
2022/11/18 00:14:27;;;;;;;5.90;1.43;;;10.50;37.90;;;;;;5058982;28;20554;-71
2022/11/18 00:16:56;;;;;;;5.13;1.07;;;10.50;37.90;;;;;;5069361;28;20460;-72
2022/11/18 00:19:25;;;;;;;4.13;1.00;;;10.50;38.70;;;;;;5067125;28;20488;-70
2022/11/18 00:21:52;;;;;;;4.07;1.00;;;10.50;38.20;;;;;;5067603;28;20453;-71
2022/11/18 00:24:20;;;;;;;4.23;1.27;;;10.50;38.30;;;;;;5068118;28;20457;-73
2022/11/18 00:26:47;;;;;;;6.00;1.47;;;10.50;38.30;;;;;;5065657;28;20453;-71
2022/11/18 00:29:14;;;;;;;4.50;1.67;;;10.50;38.30;;;;;;5060401;28;21009;-70
2022/11/18 00:31:42;;;;;;;4.20;1.40;;;10.50;38.30;;;;;;5058229;28;20470;-71
2022/11/18 00:34:12;;;;;;;4.73;1.53;;;10.50;38.40;;;;;;5065150;28;20835;-70
2022/11/18 00:36:39;;;;;;;3.90;1.30;;;10.50;38.50;;;;;;5067609;28;20457;-71
2022/11/18 00:39:05;;;;;;;5.47;1.47;;;10.40;38.40;;;;;;5062401;28;20489;-71
2022/11/18 00:44:13;;;;;;;4.40;1.20;;;10.50;38.60;;;;;;5058941;28;20541;-70
2022/11/18 00:46:39;;;;;;;4.80;1.43;;;10.50;38.50;;;;;;5064405;28;20469;-70
2022/11/18 00:49:08;;;;;;;6.43;1.70;;;10.50;38.50;;;;;;5055681;28;20485;-71
2022/11/18 00:51:35;;;;;;;3.80;1.10;;;10.50;38.60;;;;;;5057703;28;20469;-70
2022/11/18 00:54:02;;;;;;;4.20;1.10;;;10.50;38.60;;;;;;5064346;28;20461;-70
2022/11/18 00:56:29;;;;;;;4.20;1.30;;;10.40;38.70;;;;;;5056927;28;20808;-73
2022/11/18 00:58:56;;;;;;;4.10;1.33;;;10.50;38.70;;;;;;5065517;28;21007;-72
2022/11/18 01:01:23;;;;;;;4.40;1.20;;;10.50;38.60;;;;;;5066097;28;20512;-71
2022/11/18 01:03:50;;;;;;;4.27;1.57;;;10.40;38.60;;;;;;5063358;28;20461;-72
2022/11/18 01:06:18;;;;;;;6.23;1.90;;;10.50;38.80;;;;;;5064581;28;20806;-71
2022/11/18 01:08:45;;;;;;;5.07;1.80;;;10.40;38.70;;;;;;5062594;28;20456;-71
2022/11/18 01:13:56;;;;;;;3.77;1.20;;;10.40;38.70;;;;;;5065369;28;20449;-73
2022/11/18 01:16:24;;;;;;;5.67;2.00;;;10.40;38.80;;;;;;5063748;28;20480;-71
2022/11/18 01:18:52;;;;;;;4.47;1.67;;;10.40;38.80;;;;;;5066526;28;20488;-70
2022/11/18 01:21:20;;;;;;;5.93;2.00;;;10.40;39.00;;;;;;5062743;28;20630;-71
2022/11/18 01:23:47;;;;;;;4.73;1.70;;;10.40;39.10;;;;;;5067442;28;20453;-72
2022/11/18 01:26:16;;;;;;;7.17;2.10;;;10.40;39.00;;;;;;5063499;28;20449;-72
2022/11/18 01:28:44;;;;;;;5.37;2.50;;;10.40;39.10;;;;;;5060791;28;20472;-72
2022/11/18 01:31:12;;;;;;;5.30;1.90;;;10.40;39.00;;;;;;5062313;28;20481;-71
2022/11/18 01:33:39;;;;;;;5.00;1.80;;;10.40;39.10;;;;;;5063896;28;20457;-72
2022/11/18 01:36:15;;;;;;;5.20;1.57;;;10.40;39.10;;;;;;5061597;28;20488;-71
2022/11/18 01:38:43;;;;;;;5.33;1.77;;;10.40;39.40;;;;;;5065891;28;20460;-71
2022/11/18 01:41:10;;;;;;;4.77;1.63;;;10.40;39.30;;;;;;5065635;28;20467;-72
2022/11/18 01:43:50;;;;;;;4.70;1.70;;;10.40;39.20;;;;;;5061628;28;20460;-70
2022/11/18 01:46:17;;;;;;;4.27;1.47;;;10.40;39.40;;;;;;5067534;28;20459;-72
2022/11/18 01:48:44;;;;;;;4.00;1.30;;;10.30;39.30;;;;;;5065717;28;20457;-72
2022/11/18 01:51:15;;;;;;;8.93;1.50;;;10.30;39.30;;;;;;5065505;28;20980;-71
2022/11/18 01:53:49;;;;;;;4.73;1.93;;;10.30;39.40;;;;;;5063264;28;20551;-72
2022/11/18 01:56:20;;;;;;;4.93;1.30;;;10.30;39.40;;;;;;5061320;28;20476;-71
2022/11/18 01:58:50;;;;;;;4.40;1.30;;;10.30;39.30;;;;;;5060487;28;20483;-72
2022/11/18 02:01:16;;;;;;;5.73;1.60;;;10.30;39.40;;;;;;5063492;28;20473;-71
2022/11/18 02:03:46;;;;;;;4.47;1.60;;;10.30;39.60;;;;;;5065717;28;20519;-70
2022/11/18 02:06:14;;;;;;;5.03;1.50;;;10.30;39.40;;;;;;5064538;28;20461;-70
2022/11/18 02:08:43;;;;;;;5.00;1.67;;;10.30;39.60;;;;;;5059258;28;20878;-71
2022/11/18 02:11:49;;;;;;;4.90;1.33;;;10.20;39.60;;;;;;5062247;28;20461;-73
2022/11/18 02:13:59;;;;;;;6.60;2.23;;;10.20;39.70;;;;;;5059621;28;20982;-71
2022/11/18 02:16:35;;;;;;;3.90;1.20;;;10.20;39.80;;;;;;5065990;28;20516;-71
2022/11/18 02:19:08;;;;;;;4.70;1.50;;;10.30;39.90;;;;;;5068910;28;20481;-70
2022/11/18 02:21:46;;;;;;;5.93;1.80;;;10.20;39.70;;;;;;5066673;28;20464;-70
2022/11/18 02:24:41;;;;;;;7.00;1.43;;;10.20;39.80;;;;;;5065221;28;20822;-72
2022/11/18 02:27:48;;;;;;;4.40;1.20;;;10.20;40.00;;;;;;5058346;28;20832;-71
2022/11/18 02:30:18;;;;;;;4.27;1.33;;;10.20;40.10;;;;;;5060813;28;20485;-70
2022/11/18 02:32:54;;;;;;;4.10;1.20;;;10.20;40.00;;;;;;5066262;28;20469;-70
2022/11/18 02:35:28;;;;;;;4.10;0.93;;;10.20;40.10;;;;;;5070142;28;20984;-70
2022/11/18 02:37:59;;;;;;;3.87;1.03;;;10.20;40.20;;;;;;5065314;28;20473;-71
2022/11/18 02:40:30;;;;;;;3.80;1.20;;;10.10;40.40;;;;;;5066494;28;20487;-71
2022/11/18 02:43:00;;;;;;;4.90;1.23;;;10.20;40.50;;;;;;5064778;28;20458;-71
2022/11/18 02:45:29;;;;;;;4.23;1.20;;;10.20;40.20;;;;;;5068021;28;20453;-71
2022/11/18 02:47:57;;;;;;;4.67;1.10;;;10.20;40.20;;;;;;5062174;28;20461;-72
2022/11/18 02:50:27;;;;;;;4.80;1.20;;;10.20;40.00;;;;;;5070208;28;20489;-70
2022/11/18 02:52:58;;;;;;;4.43;1.10;;;10.20;40.30;;;;;;5070298;28;20448;-70
2022/11/18 02:55:28;;;;;;;4.60;1.43;;;10.20;40.20;;;;;;5062699;28;20473;-71
2022/11/18 02:57:57;;;;;;;3.70;0.90;;;10.20;40.30;;;;;;5058655;28;20536;-72
2022/11/18 03:00:24;;;;;;;4.10;1.10;;;10.20;40.30;;;;;;5058405;28;20480;-72
2022/11/18 03:02:52;;;;;;;4.30;1.10;;;10.20;40.30;;;;;;5068986;28;20452;-71
2022/11/18 03:05:27;;;;;;;4.10;1.00;;;10.20;40.30;;;;;;5062024;28;20965;-70
2022/11/18 03:08:01;;;;;;;3.70;0.70;;;10.20;40.20;;;;;;5064548;28;20468;-70
2022/11/18 03:10:33;;;;;;;4.73;1.50;;;10.20;40.00;;;;;;5065517;28;20829;-71
2022/11/18 03:13:11;;;;;;;3.97;0.80;;;10.20;39.80;;;;;;5067153;28;20467;-72
2022/11/18 03:15:48;;;;;;;3.40;0.60;;;10.20;39.90;;;;;;5066095;28;20461;-70
2022/11/18 03:18:23;;;;;;;3.30;0.57;;;10.20;39.70;;;;;;5060956;28;20465;-70
2022/11/18 03:20:57;;;;;;;4.13;0.60;;;10.10;40.00;;;;;;5062312;28;20928;-71
2022/11/18 03:23:32;;;;;;;4.33;0.60;;;10.20;39.90;;;;;;5062535;28;20453;-70
2022/11/18 03:26:01;;;;;;;3.20;0.40;;;10.10;40.10;;;;;;5069377;28;20978;-71
2022/11/18 03:28:34;;;;;;;3.70;0.70;;;10.10;40.30;;;;;;5069369;28;20495;-72
2022/11/18 03:31:07;;;;;;;4.07;0.60;;;10.10;40.40;;;;;;5067217;28;20495;-72
2022/11/18 03:33:39;;;;;;;4.20;0.60;;;10.10;40.20;;;;;;5068335;28;20460;-72
2022/11/18 03:36:09;;;;;;;3.30;0.60;;;10.10;40.40;;;;;;5054467;28;20517;-72
2022/11/18 03:38:40;;;;;;;4.07;0.50;;;10.10;40.20;;;;;;5063947;28;20460;-71
2022/11/18 03:41:11;;;;;;;3.40;0.63;;;10.10;40.00;;;;;;5063707;28;20491;-71
2022/11/18 03:43:41;;;;;;;3.30;0.50;;;10.10;40.10;;;;;;5067350;28;20458;-71
2022/11/18 03:46:13;;;;;;;7.13;0.53;;;10.20;40.00;;;;;;5065642;28;20453;-71
2022/11/18 03:48:47;;;;;;;5.93;1.50;;;10.10;40.00;;;;;;5061083;28;21050;-72
2022/11/18 03:51:18;;;;;;;3.70;0.60;;;10.20;40.40;;;;;;5060428;28;20476;-72
2022/11/18 03:53:47;;;;;;;3.40;0.60;;;10.20;40.40;;;;;;5064820;28;20977;-72
2022/11/18 03:56:18;;;;;;;3.30;0.50;;;10.20;40.40;;;;;;5062136;28;20526;-72
2022/11/18 03:58:50;;;;;;;5.20;0.57;;;10.20;40.40;;;;;;5062678;28;20465;-72
2022/11/18 04:01:21;;;;;;;3.43;0.70;;;10.20;40.50;;;;;;5058676;28;20469;-72
2022/11/18 04:03:49;;;;;;;3.60;0.80;;;10.20;40.70;;;;;;5060810;28;20565;-72
2022/11/18 04:06:24;;;;;;;3.50;0.60;;;10.20;40.70;;;;;;5059587;28;20455;-72
2022/11/18 04:08:56;;;;;;;3.40;0.70;;;10.20;41.00;;;;;;5066362;28;20461;-70
2022/11/18 04:14:15;;;;;;;3.57;0.80;;;10.20;41.30;;;;;;5062878;28;20456;-69
2022/11/18 04:16:44;;;;;;;3.37;0.60;;;10.20;41.50;;;;;;5064973;28;20707;-70
2022/11/18 04:19:12;;;;;;;3.73;0.83;;;10.30;41.80;;;;;;5060421;28;20485;-71
2022/11/18 04:21:39;;;;;;;3.60;0.70;;;10.30;41.90;;;;;;5062171;28;20457;-71
2022/11/18 04:24:06;;;;;;;5.07;1.10;;;10.20;41.50;;;;;;5059887;28;20450;-71
2022/11/18 04:26:33;;;;;;;3.60;0.70;;;10.20;41.60;;;;;;5064162;28;20486;-71
2022/11/18 04:29:00;;;;;;;3.50;0.70;;;10.20;41.10;;;;;;5065671;28;20811;-71
2022/11/18 04:31:26;;;;;;;3.90;0.70;;;10.20;40.70;;;;;;5061559;28;21003;-71
2022/11/18 04:33:53;;;;;;;4.30;0.67;;;10.20;40.50;;;;;;5060079;28;20977;-70
2022/11/18 04:36:21;;;;;;;3.30;0.50;;;10.20;40.40;;;;;;5055071;28;20481;-71
2022/11/18 04:38:48;;;;;;;3.40;0.67;;;10.20;39.80;;;;;;5065052;28;20459;-71
2022/11/18 04:41:15;;;;;;;5.53;0.50;;;10.20;39.80;;;;;;5068861;28;20455;-70
2022/11/18 04:43:42;;;;;;;3.77;0.80;;;10.10;39.80;;;;;;5065464;28;20457;-70
2022/11/18 04:46:09;;;;;;;3.80;0.70;;;10.10;39.80;;;;;;5058679;28;20453;-72
2022/11/18 04:48:36;;;;;;;5.00;3.37;;;10.10;40.00;;;;;;5066524;28;22909;-71
2022/11/18 04:51:03;;;;;;;4.73;0.80;;;10.10;39.70;;;;;;5068525;28;20456;-72
2022/11/18 04:53:32;;;;;;;3.30;0.60;;;10.10;39.90;;;;;;5064387;28;20512;-71
2022/11/18 04:56:05;;;;;;;3.90;0.90;;;10.10;39.80;;;;;;5058049;28;20916;-73
2022/11/18 04:58:32;;;;;;;4.00;0.73;;;10.20;39.50;;;;;;5066331;28;20464;-70
2022/11/18 05:00:59;;;;;;;4.23;1.17;;;10.10;39.50;;;;;;5060400;28;21034;-72
2022/11/18 05:03:26;;;;;;;4.00;1.03;;;10.10;39.70;;;;;;5059009;28;20450;-72
2022/11/18 05:05:52;;;;;;;7.77;1.30;;;10.10;39.60;;;;;;5064677;28;20461;-73
2022/11/18 05:08:19;;;;;;;4.60;0.80;;;10.10;39.80;;;;;;5057585;28;20464;-70
2022/11/18 05:10:47;;;;;;;6.23;0.80;;;10.10;39.60;;;;;;5055936;28;20484;-67
2022/11/18 05:13:13;;;;;;;4.03;1.03;;;10.10;39.20;;;;;;5060862;28;20457;-67
2022/11/18 05:15:40;;;;;;;3.60;0.80;;;10.10;39.20;;;;;;5062260;28;20492;-68
2022/11/18 05:18:09;;;;;;;4.20;0.90;;;10.10;38.50;;;;;;5062152;28;20556;-68
2022/11/18 05:20:37;;;;;;;5.80;0.90;;;10.10;38.30;;;;;;5059896;28;20503;-68
2022/11/18 05:23:04;;;;;;;4.97;0.97;;;10.10;38.50;;;;;;5063990;28;20453;-67
2022/11/18 05:25:31;;;;;;;4.20;0.73;;;10.00;38.10;;;;;;5065814;28;20460;-67
2022/11/18 05:27:59;;;;;;;4.10;0.80;;;10.00;37.60;;;;;;5062228;28;20458;-67
2022/11/18 05:30:26;;;;;;;3.60;0.60;;;10.00;37.60;;;;;;5060245;28;20476;-68
2022/11/18 05:32:52;;;;;;;3.40;0.60;;;9.90;37.80;;;;;;5064958;28;20828;-68
2022/11/18 05:35:19;;;;;;;6.27;0.70;;;9.90;37.60;;;;;;5059025;28;20957;-67
2022/11/18 05:37:46;;;;;;;3.70;0.70;;;9.80;37.90;;;;;;5057832;28;20464;-68
2022/11/18 05:40:13;;;;;;;4.53;0.93;;;9.80;38.10;;;;;;5060979;28;20488;-62
2022/11/18 05:45:25;;;;;;;5.00;0.70;;;9.80;38.50;;;;;;5061695;28;20544;-63
2022/11/18 05:48:03;;;;;;;3.20;0.40;;;9.80;38.40;;;;;;5059328;28;20458;-62
2022/11/18 05:50:30;;;;;;;3.43;0.50;;;9.80;37.70;;;;;;5059104;28;20483;-62
2022/11/18 05:52:57;;;;;;;4.30;0.60;;;9.90;37.20;;;;;;5063883;28;20453;-64
2022/11/18 05:55:27;;;;;;;3.20;0.40;;;9.90;37.10;;;;;;5058832;28;20453;-65
2022/11/18 05:57:53;;;;;;;3.83;1.13;;;9.90;37.00;;;;;;5062374;28;20461;-66
2022/11/18 06:00:20;;;;;;;3.30;0.50;;;9.80;36.90;;;;;;5064176;28;20482;-64
2022/11/18 06:02:51;;;;;;;3.20;0.40;;;9.80;36.90;;;;;;5070497;28;20461;-64
2022/11/18 06:05:19;;;;;;;3.33;0.60;;;9.80;36.70;;;;;;5069429;28;20466;-63
2022/11/18 06:07:46;;;;;;;3.17;0.30;;;9.80;36.70;;;;;;5065727;28;20819;-64
2022/11/18 06:10:17;;;;;;;3.93;0.57;;;9.80;36.70;;;;;;5060191;28;20866;-64
2022/11/18 06:12:47;;;;;;;3.33;0.43;;;9.80;36.70;;;;;;5066149;28;20468;-63
2022/11/18 06:15:18;;;;;;;3.60;0.70;;;9.70;36.70;;;;;;5065564;28;20468;-63
2022/11/18 06:17:51;;;;;;;4.07;0.60;;;9.70;36.90;;;;;;5061792;28;20478;-63
2022/11/18 06:20:20;;;;;;;6.40;0.70;;;9.70;36.70;;;;;;5068732;28;20492;-63
2022/11/18 06:22:47;;;;;;;5.10;0.90;;;9.70;36.80;;;;;;5066167;28;20468;-64
2022/11/18 06:25:14;;;;;;;4.00;1.00;;;9.70;37.10;;;;;;5063483;28;20536;-64
2022/11/18 06:27:42;;;;;;;4.10;1.00;;;9.70;37.20;;;;;;5065575;28;20462;-65
2022/11/18 06:30:10;;;;;;;4.60;0.90;;;9.70;37.30;;;;;;5070166;28;20488;-64
2022/11/18 06:32:37;;;;;;;3.77;0.80;;;9.60;37.30;;;;;;5065430;28;20484;-63
2022/11/18 06:35:06;;;;;;;3.90;0.97;;;9.70;37.60;;;;;;5063502;28;20465;-62
2022/11/18 06:37:34;;;;;;;4.37;1.10;;;9.70;37.70;;;;;;5056259;28;20485;-64
2022/11/18 06:40:00;;;;;;;4.97;1.03;;;9.70;37.60;;;;;;5065278;28;20563;-62
2022/11/18 06:45:12;;;;;;;3.90;0.90;;;9.70;37.80;;;;;;5067202;28;20461;-65
2022/11/18 06:47:38;;;;;;;3.90;0.80;;;9.70;37.50;;;;;;5059571;28;20459;-63
2022/11/18 06:50:07;;;;;;;4.57;1.20;;;9.70;37.00;;;;;;5062847;28;20476;-66
2022/11/18 06:52:34;;;;;;;3.50;0.83;;;9.70;37.20;;;;;;5066437;28;20209;-67
2022/11/18 06:55:00;;;;;;;3.40;0.60;;;9.70;36.90;;;;;;5062082;28;20467;-66
2022/11/18 06:57:27;;;;;;;5.50;0.60;;;9.80;35.70;;;;;;5061423;28;20477;-63
2022/11/18 06:59:54;;;;;;;3.53;0.70;;;9.80;35.20;;;;;;5068801;28;20481;-63
2022/11/18 07:02:21;;;;;;;6.23;0.73;;;9.80;34.90;;;;;;5066437;28;21046;-62
2022/11/18 07:04:47;;;;;;;3.73;0.80;;;9.70;34.80;;;;;;5062918;28;20466;-63
2022/11/18 07:07:16;;;;;;;3.40;0.50;;;9.70;34.40;;;;;;5068048;28;20460;-62
2022/11/18 07:09:43;;;;;;;3.83;0.60;;;9.60;34.50;;;;;;5069570;28;20477;-64
2022/11/18 07:12:10;;;;;;;3.33;0.50;;;9.60;34.50;;;;;;5071471;28;20464;-63
2022/11/18 07:14:37;;;;;;;4.60;0.63;;;9.60;33.90;;;;;;5066317;28;20458;-63
2022/11/18 07:17:03;;;;;;;3.50;0.60;;;9.60;34.20;;;;;;5066060;28;20484;-64
2022/11/18 07:19:30;;;;;;;5.37;0.67;;;9.60;34.10;;;;;;5062668;28;20496;-66
2022/11/18 07:21:58;;;;;;;4.07;0.60;;;9.60;33.80;;;;;;5062122;28;20479;-66
2022/11/18 07:24:26;;;;;;;4.00;0.80;;;9.60;33.60;;;;;;5065100;28;20582;-65
2022/11/18 07:26:53;;;;;;;4.67;0.90;;;9.60;34.00;;;;;;5064198;28;20995;-66
2022/11/18 07:29:20;;;;;;;4.77;0.80;;;9.60;34.60;;;;;;5065708;28;20477;-68
2022/11/18 07:31:46;;;;;;;5.53;1.43;;;9.60;34.30;;;;;;5060791;28;20470;-66
2022/11/18 07:34:13;;;;;;;5.37;1.33;;;9.60;34.30;;;;;;5056447;28;20458;-65
2022/11/18 07:36:40;;;;;;;6.70;1.40;;;9.60;34.60;;;;;;5059414;28;20481;-65
2022/11/18 07:39:07;;;;;;;7.67;1.87;;;9.60;34.70;;;;;;5067718;28;20481;-66
2022/11/18 07:41:36;;;;;;;5.73;1.60;;;9.60;34.60;;;;;;5062204;28;20949;-62
2022/11/18 07:44:03;;;;;;;8.20;1.90;;;9.70;34.40;;;;;;5063667;28;20462;-65
2022/11/18 07:46:32;;;;;;;5.00;1.53;;;9.70;34.30;;;;;;5061948;28;20458;-64
2022/11/18 07:49:01;;;;;;;4.83;1.33;;;9.70;34.40;;;;;;5059278;28;20478;-67
2022/11/18 07:51:29;;;;;;;5.10;0.90;;;9.70;34.40;;;;;;5064654;28;20461;-64
2022/11/18 07:53:56;;;;;;;4.40;0.90;;;9.70;34.50;;;;;;5058072;28;20465;-64
2022/11/18 07:56:24;;;;;;;6.63;1.20;;;9.70;34.20;;;;;;5068794;28;20480;-65
2022/11/18 07:58:54;;;;;;;4.10;0.97;;;9.60;34.40;;;;;;5069107;28;20457;-65
2022/11/18 08:01:23;;;;;;;6.23;1.20;;;9.60;34.80;;;;;;5061858;28;20471;-64
2022/11/18 08:03:51;;;;;;;6.23;1.20;;;9.60;35.10;;;;;;5058329;28;20461;-65
2022/11/18 08:06:19;;;;;;;8.20;1.20;;;9.60;35.30;;;;;;5064909;28;20586;-65
2022/11/18 08:08:46;;;;;;;7.00;2.00;;;9.60;35.00;;;;;;5063849;28;21048;-65
2022/11/18 08:11:15;;;;;;;7.20;1.53;;;9.70;35.30;;;;;;5063020;28;20461;-65
2022/11/18 08:13:41;;;;;;;8.60;2.17;;;9.70;35.40;;;;;;5060432;28;20473;-65
2022/11/18 08:16:15;;;;;;;4.63;1.30;;;9.70;35.30;;;;;;5063999;28;20457;-65
2022/11/18 08:18:42;;;;;;;8.53;1.27;;;9.70;35.70;;;;;;5066893;28;21232;-64
2022/11/18 08:21:09;;;;;;;7.50;1.40;;;9.80;35.50;;;;;;5067014;28;20461;-65
2022/11/18 08:23:36;;;;;;;7.13;1.50;;;9.90;35.40;;;;;;5059227;28;20480;-64
2022/11/18 08:26:05;;;;;;;7.03;1.43;;;9.90;35.30;;;;;;5062813;28;20457;-66
2022/11/18 08:28:32;;;;;;;8.10;2.17;;;10.00;35.30;;;;;;5059687;28;20457;-65
2022/11/18 08:30:59;;;;;;;11.33;3.00;;;10.10;35.00;;;;;;5063083;28;20465;-67
2022/11/18 08:33:27;;;;;;;9.03;2.53;;;10.10;34.70;;;;;;5062830;28;20461;-64
2022/11/18 08:35:54;;;;;;;10.73;2.50;;;10.20;34.50;;;;;;5065586;28;20453;-66
2022/11/18 08:38:21;;;;;;;7.93;1.53;;;10.40;34.20;;;;;;5062854;28;20492;-65
2022/11/18 08:40:48;;;;;;;4.43;0.93;;;10.40;34.00;;;;;;5061655;28;20485;-65
2022/11/18 08:43:15;;;;;;;4.97;1.03;;;10.40;33.90;;;;;;5065557;28;20457;-66
2022/11/18 08:45:41;;;;;;;4.23;0.73;;;10.40;34.10;;;;;;5065853;28;20514;-66
2022/11/18 08:48:08;;;;;;;4.83;0.60;;;10.40;34.30;;;;;;5065471;28;20445;-65
2022/11/18 08:50:36;;;;;;;3.87;1.00;;;10.40;34.60;;;;;;5060264;28;20480;-65
2022/11/18 08:53:03;;;;;;;4.10;0.70;;;10.50;34.80;;;;;;5061588;28;20461;-65
2022/11/18 08:55:30;;;;;;;3.30;0.53;;;10.50;35.00;;;;;;5060319;28;20988;-65
2022/11/18 08:57:57;;;;;;;3.83;0.70;;;10.50;35.20;;;;;;5058230;28;20481;-67
2022/11/18 09:00:23;;;;;;;3.83;0.93;;;10.60;35.10;;;;;;5060070;28;20488;-65
2022/11/18 09:02:50;;;;;;;3.60;0.80;;;10.70;35.00;;;;;;5070138;28;20457;-64
2022/11/18 09:05:17;;;;;;;3.53;0.97;;;10.80;34.60;;;;;;5060999;28;20456;-64
2022/11/18 09:07:45;;;;;;;4.67;0.70;;;10.80;34.70;;;;;;5063773;28;20465;-64
2022/11/18 09:10:12;;;;;;;4.37;1.07;;;10.90;34.90;;;;;;5055987;28;20861;-65
2022/11/18 09:12:39;;;;;;;3.20;0.50;;;11.10;34.80;;;;;;5060365;28;21222;-69
2022/11/18 09:15:07;;;;;;;3.40;0.70;;;11.10;34.40;;;;;;5065345;28;20836;-62
2022/11/18 09:17:34;;;;;;;4.27;0.70;;;11.20;34.20;;;;;;5058352;28;20565;-61
2022/11/18 09:20:01;;;;;;;3.80;0.80;;;11.10;33.90;;;;;;5071014;28;20493;-61
2022/11/18 09:22:27;;;;;;;3.80;0.70;;;11.10;33.70;;;;;;5056958;28;21044;-62
2022/11/18 09:24:55;;;;;;;3.90;0.73;;;11.10;34.00;;;;;;5063234;28;20461;-63
2022/11/18 09:27:22;;;;;;;3.40;0.63;;;11.10;34.10;;;;;;5057839;28;20957;-63
2022/11/18 09:29:49;;;;;;;3.80;0.80;;;11.10;34.30;;;;;;5057736;28;21039;-62
2022/11/18 09:32:16;;;;;;;3.60;0.97;;;11.10;34.30;;;;;;5064738;28;20479;-63
2022/11/18 09:34:42;;;;;;;3.60;0.77;;;11.10;34.30;;;;;;5059338;28;20464;-62
2022/11/18 09:37:09;;;;;;;3.30;0.70;;;11.00;34.40;;;;;;5055091;28;20477;-62
2022/11/18 09:39:36;;;;;;;4.07;0.70;;;11.00;34.50;;;;;;5058215;28;20473;-62
2022/11/18 09:42:29;;;;;;;3.40;0.70;;;10.90;34.50;;;;;;5062002;28;20475;-61
2022/11/18 09:45:05;;;;;;;3.63;0.80;;;10.90;34.90;;;;;;5052696;28;20520;-63
2022/11/18 09:47:34;;;;;;;4.50;1.10;;;10.90;34.50;;;;;;5060916;28;20990;-62
2022/11/18 09:50:03;;;;;;;3.60;0.70;;;10.80;34.70;;;;;;5058089;28;21036;-62
2022/11/18 09:52:33;;;;;;;4.77;1.10;;;10.80;35.00;;;;;;5062722;28;20458;-62
2022/11/18 09:55:00;;;;;;;4.83;0.83;;;10.70;35.60;;;;;;5063656;28;20487;-62
2022/11/18 09:57:36;;;;;;;4.53;1.20;;;10.70;35.80;;;;;;5059160;28;21283;-62
2022/11/18 10:00:13;;;;;;;6.43;1.10;;;10.70;36.00;;;;;;5053796;28;20852;-61
2022/11/18 10:02:48;;;;;;;5.70;1.23;;;10.60;36.10;;;;;;5054768;28;20853;-63
2022/11/18 10:05:18;;;;;;;5.67;1.27;;;10.60;36.40;;;;;;5060318;28;21182;-61
2022/11/18 10:07:55;;;;;;;7.60;1.60;;;10.60;36.10;;;;;;5059597;28;21251;-62
2022/11/18 10:10:29;;;;;;;4.60;1.23;;;10.60;36.30;;;;;;5059834;28;20519;-64
2022/11/18 10:13:04;;;;;;;4.90;1.20;;;10.50;36.50;;;;;;5056858;28;20465;-61
2022/11/18 10:15:37;;;;;;;6.73;1.10;;;10.50;36.50;;;;;;5059814;28;20842;-61
2022/11/18 10:18:17;;;;;;;4.17;1.00;;;10.50;36.70;;;;;;5061310;28;20496;-61
2022/11/18 10:20:50;;;;;;;4.43;0.60;;;10.60;36.60;;;;;;5057845;28;20484;-62
2022/11/18 10:23:22;;;;;;;3.30;0.40;;;10.60;35.60;;;;;;5062027;28;20858;-63
2022/11/18 10:25:49;;;;;;;5.27;0.50;;;10.60;36.00;;;;;;5054765;28;20457;-62
2022/11/18 10:28:22;;;;;;;3.30;0.30;;;10.50;35.60;;;;;;5057195;28;20461;-62
2022/11/18 10:30:49;;;;;;;3.40;0.70;;;10.50;34.90;;;;;;5052794;28;20466;-61
2022/11/18 10:33:25;;;;;;;3.80;0.43;;;10.40;34.90;;;;;;5063823;28;20457;-63
2022/11/18 10:36:10;;;;;;;3.40;0.50;;;10.30;35.80;;;;;;5055845;28;20465;-62
2022/11/18 10:38:37;;;;;;;4.27;0.53;;;10.30;35.50;;;;;;5062676;28;20476;-61
2022/11/18 10:41:08;;;;;;;3.80;0.43;;;10.20;35.20;;;;;;5056952;28;20975;-62
2022/11/18 10:43:48;;;;;;;3.50;0.50;;;10.20;35.30;;;;;;5057641;28;20461;-61
2022/11/18 10:46:18;;;;;;;3.97;0.40;;;10.10;35.30;;;;;;5057026;28;20453;-62
2022/11/18 10:48:45;;;;;;;3.80;0.57;;;10.10;35.10;;;;;;5062638;28;20450;-61
2022/11/18 10:51:22;;;;;;;4.50;0.47;;;10.10;35.60;;;;;;5067755;28;20467;-61
2022/11/18 10:53:49;;;;;;;3.57;0.50;;;10.10;36.00;;;;;;5062178;28;20837;-61
2022/11/18 10:56:15;;;;;;;3.20;0.40;;;10.10;35.80;;;;;;5065918;28;20810;-60
2022/11/18 10:58:46;;;;;;;3.50;0.77;;;10.00;35.60;;;;;;5059100;28;20481;-62
2022/11/18 11:01:21;;;;;;;3.60;0.40;;;10.00;36.00;;;;;;5062626;28;21185;-65
2022/11/18 11:03:59;;;;;;;3.60;0.70;;;10.00;36.10;;;;;;5069926;28;20496;-67
2022/11/18 11:06:31;;;;;;;5.20;1.23;;;10.00;36.50;;;;;;5064820;28;20464;-65
2022/11/18 11:09:00;;;;;;;4.53;0.90;;;10.10;36.60;;;;;;5054353;28;20478;-68
2022/11/18 11:11:30;;;;;;;4.20;1.10;;;10.20;36.50;;;;;;5063015;28;20471;-64
2022/11/18 11:14:11;;;;;;;3.30;0.50;;;10.20;36.40;;;;;;5057931;28;20454;-70
2022/11/18 11:16:45;;;;;;;5.10;1.63;;;10.30;35.90;;;;;;5066421;28;20990;-65
2022/11/18 11:19:14;;;;;;;3.80;1.30;;;10.30;35.80;;;;;;5060112;28;20484;-66
2022/11/18 11:21:41;;;;;;;4.07;1.23;;;10.30;35.90;;;;;;5064725;28;20984;-67
2022/11/18 11:24:11;;;;;;;3.37;0.60;;;10.40;35.90;;;;;;5063159;28;21020;-65
2022/11/18 11:26:44;;;;;;;3.50;0.70;;;10.40;35.90;;;;;;5059619;28;20453;-66
2022/11/18 11:29:25;;;;;;;4.17;0.60;;;10.30;35.80;;;;;;5055062;28;20477;-66
2022/11/18 11:32:02;;;;;;;4.30;1.07;;;10.30;36.00;;;;;;5062194;28;20481;-64
2022/11/18 11:34:36;;;;;;;4.33;1.70;;;10.30;36.10;;;;;;5061915;28;20457;-65
2022/11/18 11:37:14;;;;;;;5.73;3.60;;;10.30;36.40;;;;;;5060373;28;20468;-67
2022/11/18 11:39:52;;;;;;;4.30;1.67;;;10.40;36.60;;;;;;5060446;28;20514;-65
2022/11/18 11:42:36;;;;;;;5.40;2.40;;;10.40;36.50;;;;;;5061964;28;20469;-65
2022/11/18 11:45:18;;;;;;;4.70;1.53;;;10.50;36.50;;;;;;5067753;28;20459;-69
2022/11/18 11:48:06;;;;;;;4.50;1.30;;;10.60;36.30;;;;;;5063415;28;21213;-66
2022/11/18 11:50:53;;;;;;;3.73;0.87;;;10.80;35.30;;;;;;5062566;28;20485;-69
2022/11/18 11:53:31;;;;;;;5.13;1.10;;;10.80;34.90;;;;;;5067054;28;20453;-72
2022/11/18 11:56:09;;;;;;;5.17;2.27;;;10.90;34.10;;;;;;5060972;28;20966;-70
2022/11/18 11:59:17;;;;;;;6.90;4.07;;;11.00;34.00;;;;;;5062079;28;20477;-70
2022/11/18 12:02:14;;;;;;;4.63;2.10;;;11.10;34.10;;;;;;5050821;28;21007;-64
2022/11/18 12:04:46;;;;;;;6.67;1.50;;;11.30;32.90;;;;;;5058716;28;20466;-71
2022/11/18 12:07:19;;;;;;;6.63;2.00;;;11.40;32.30;;;;;;5060745;28;20460;-70
2022/11/18 12:09:57;;;;;;;7.13;1.60;;;11.40;32.70;;;;;;5058830;28;20477;-65
2022/11/18 12:12:35;;;;;;;6.27;1.20;;;11.60;32.50;;;;;;5057652;28;20457;-64
2022/11/18 12:15:19;;;;;;;4.17;0.87;;;11.70;31.80;;;;;;5065869;28;20464;-67
2022/11/18 12:17:57;;;;;;;6.47;3.00;;;11.80;30.90;;;;;;5061002;28;20478;-65
2022/11/18 12:20:46;;;;;;;5.00;1.20;;;11.80;30.30;;;;;;5058126;28;20491;-66
2022/11/18 12:23:16;;;;;;;5.20;2.00;;;11.80;30.10;;;;;;5061913;28;20453;-63
2022/11/18 12:25:57;;;;;;;5.20;1.60;;;11.80;29.80;;;;;;5058906;28;20912;-66
2022/11/18 12:28:31;;;;;;;4.47;1.30;;;11.80;30.30;;;;;;5055381;28;20454;-66
2022/11/18 12:31:35;;;;;;;5.93;1.60;;;11.70;29.90;;;;;;5061289;28;20504;-64
2022/11/18 12:34:17;;;;;;;4.47;1.23;;;11.70;29.80;;;;;;5061360;28;20461;-66
2022/11/18 12:36:43;;;;;;;4.57;1.30;;;11.80;29.30;;;;;;5056880;28;20461;-65
2022/11/18 12:39:48;;;;;;;6.23;1.47;;;11.80;29.10;;;;;;5065732;28;20484;-65
2022/11/18 12:45:53;;;;;;;4.30;1.40;;;12.00;30.00;;;;;;4981815;28;20504;-62
2022/11/18 12:48:38;;;;;;;7.87;1.60;;;12.10;29.60;;;;;;5057669;28;20454;-63
2022/11/18 12:51:42;;;;;;;4.10;1.10;;;12.20;29.30;;;;;;5063351;28;20953;-62
2022/11/18 12:54:34;;;;;;;5.37;1.30;;;12.20;28.80;;;;;;5062092;28;20461;-63
2022/11/18 12:57:03;;;;;;;4.30;0.80;;;12.30;29.10;;;;;;5058002;28;20466;-64
2022/11/18 12:59:33;;;;;;;5.13;1.20;;;12.20;29.10;;;;;;5062248;28;20491;-63
2022/11/18 13:02:20;;;;;;;5.90;1.30;;;12.20;28.70;;;;;;5064224;28;20844;-62
2022/11/18 13:05:04;;;;;;;5.90;1.20;;;12.20;29.00;;;;;;5064008;28;20457;-65
2022/11/18 13:10:27;;;;;;;6.13;1.70;;;12.10;28.80;;;;;;5035392;28;20920;-67
2022/11/18 13:12:55;;;;;;;63.37;36.67;;;12.10;28.70;;;;;;5062777;28;20536;-67
2022/11/18 13:18:12;;;;;;;7.30;1.97;;;11.90;30.00;;;;;;5053422;28;20693;-66
2022/11/18 13:20:40;;;;;;;6.17;1.80;;;11.90;30.30;;;;;;5053974;28;20485;-67
2022/11/18 13:26:19;;;;;;;5.30;1.43;;;11.70;30.80;;;;;;5061653;28;20490;-65
2022/11/18 13:29:06;;;;;;;4.57;1.50;;;11.70;31.10;;;;;;5054406;28;20508;-62
2022/11/18 13:31:40;;;;;;;5.20;0.83;;;11.50;31.80;;;;;;5052173;28;20565;-64
2022/11/18 13:34:17;;;;;;;4.03;1.10;;;11.50;32.10;;;;;;5059537;28;20457;-64
2022/11/18 13:36:45;;;;;;;3.63;0.80;;;11.40;31.10;;;;;;5057861;28;20450;-65